Time;durP1;ratioP1;P1;durP2;ratioP2;P2;SDS_P1;SDS_P2;PMS_P1;PMS_P2;Temp;Humidity;BMP_temperature;BMP_pressure;BME280_temperature;BME280_humidity;BME280_pressure;Samples;Min_cycle;Max_cycle;Signal;HPM_P1;HPM_P2
2022/05/24 00:01:20;;;;;;;13.02;3.45;;;;;;;17.91;100.00;96850.72;4946123;28;20034;-57
2022/05/24 00:03:45;;;;;;;13.18;3.25;;;;;;;18.20;100.00;96848.13;4946723;28;20023;-57
2022/05/24 00:06:11;;;;;;;14.23;3.35;;;;;;;18.13;100.00;96843.53;4947311;28;20053;-56
2022/05/24 00:08:37;;;;;;;15.43;4.03;;;;;;;17.86;100.00;96851.13;4946985;28;20247;-57
2022/05/24 00:11:02;;;;;;;13.45;3.00;;;;;;;18.12;100.00;96847.94;4947261;28;20027;-57
2022/05/24 00:13:28;;;;;;;14.18;3.60;;;;;;;17.94;100.00;96841.69;4945570;28;20023;-57
2022/05/24 00:15:53;;;;;;;11.77;3.28;;;;;;;17.81;100.00;96848.06;4947658;28;20042;-56
2022/05/24 00:18:22;;;;;;;12.48;3.67;;;;;;;17.93;100.00;96835.59;4947922;28;20037;-56
2022/05/24 00:20:53;;;;;;;14.27;3.42;;;;;;;17.97;100.00;96849.34;4946211;28;20479;-56
2022/05/24 00:23:21;;;;;;;14.53;3.43;;;;;;;17.81;100.00;96848.06;4947553;28;20038;-56
2022/05/24 00:25:49;;;;;;;13.70;3.42;;;;;;;18.29;100.00;96841.19;4946207;28;20035;-57
2022/05/24 00:28:16;;;;;;;13.52;3.42;;;;;;;18.29;100.00;96844.63;4947958;28;20039;-56
2022/05/24 00:30:44;;;;;;;11.40;3.03;;;;;;;18.30;100.00;96848.94;4946016;28;20027;-57
2022/05/24 00:33:09;;;;;;;13.00;3.50;;;;;;;18.26;100.00;96842.28;4947224;28;20026;-56
2022/05/24 00:35:35;;;;;;;12.52;3.80;;;;;;;18.06;100.00;96840.59;4945179;28;20035;-56
2022/05/24 00:38:01;;;;;;;14.50;3.20;;;;;;;18.15;100.00;96845.06;4949239;28;20703;-55
2022/05/24 00:40:35;;;;;;;11.77;3.38;;;;;;;17.88;100.00;96849.22;4946332;28;20042;-56
2022/05/24 00:43:05;;;;;;;14.18;3.90;;;;;;;18.45;100.00;96843.22;4945564;28;20062;-56
2022/05/24 00:45:34;;;;;;;11.23;3.40;;;;;;;18.40;100.00;96842.84;4946495;28;20043;-56
2022/05/24 00:48:10;;;;;;;13.80;3.63;;;;;;;18.15;100.00;96831.84;4948656;28;20054;-57
2022/05/24 00:50:40;;;;;;;14.70;4.75;;;;;;;17.92;100.00;96842.69;4945808;28;20043;-56
2022/05/24 00:53:20;;;;;;;11.73;3.50;;;;;;;17.97;100.00;96841.44;4947807;28;20046;-56
2022/05/24 00:56:01;;;;;;;18.60;3.90;;;;;;;18.22;100.00;96846.16;4949287;28;20570;-55
2022/05/24 00:58:48;;;;;;;13.40;3.60;;;;;;;18.30;100.00;96850.75;4948823;28;20794;-55
2022/05/24 01:01:23;;;;;;;12.00;3.53;;;;;;;18.29;100.00;96842.00;4949123;28;20412;-57
2022/05/24 01:03:48;;;;;;;13.55;3.60;;;;;;;18.22;100.00;96848.81;4946547;28;20018;-56
2022/05/24 01:06:14;;;;;;;13.60;3.75;;;;;;;18.22;100.00;96847.97;4948074;28;20039;-56
2022/05/24 01:08:40;;;;;;;13.45;3.50;;;;;;;18.38;100.00;96850.03;4949461;28;20110;-55
2022/05/24 01:11:08;;;;;;;13.40;3.17;;;;;;;17.96;100.00;96845.88;4962484;28;20126;-57
2022/05/24 01:13:33;;;;;;;13.88;3.60;;;;;;;18.18;100.00;96839.50;4951520;28;20031;-55
2022/05/24 01:15:58;;;;;;;16.95;3.90;;;;;;;18.46;100.00;96837.81;4949815;28;20070;-57
2022/05/24 01:18:24;;;;;;;16.92;3.60;;;;;;;18.42;100.00;96840.88;4951958;28;20554;-57
2022/05/24 01:20:55;;;;;;;12.32;3.22;;;;;;;18.70;100.00;96844.44;4950663;28;20110;-56
2022/05/24 01:23:42;;;;;;;11.83;3.37;;;;;;;18.36;100.00;96846.72;4950263;28;20123;-56
2022/05/24 01:26:16;;;;;;;15.05;4.00;;;;;;;18.33;100.00;96845.19;4949958;28;20275;-56
2022/05/24 01:28:53;;;;;;;12.57;3.83;;;;;;;18.09;100.00;96851.72;4948610;28;20784;-55
2022/05/24 01:31:21;;;;;;;12.65;3.60;;;;;;;18.48;100.00;96841.16;4948182;28;20427;-56
2022/05/24 01:36:47;;;;;;;13.00;3.38;;;;;;;18.23;100.00;96847.00;4930207;29;20082;-56
2022/05/24 01:39:12;;;;;;;11.05;3.40;;;;;;;18.48;100.00;96842.97;4945260;28;20042;-57
2022/05/24 01:41:48;;;;;;;10.93;3.35;;;;;;;18.46;100.00;96847.56;4950644;28;20043;-56
2022/05/24 01:44:22;;;;;;;12.13;3.30;;;;;;;18.34;100.00;96846.84;4950499;28;20034;-55
2022/05/24 01:46:48;;;;;;;13.20;3.60;;;;;;;18.20;100.00;96845.47;4950084;28;20047;-56
2022/05/24 01:49:22;;;;;;;13.18;3.47;;;;;;;18.09;100.00;96850.88;4951375;28;20654;-56
2022/05/24 01:52:03;;;;;;;13.52;3.90;;;;;;;18.57;100.00;96839.47;4949835;28;20768;-56
2022/05/24 01:54:32;;;;;;;10.60;3.53;;;;;;;18.42;100.00;96840.88;4949826;28;20038;-56
2022/05/24 01:57:12;;;;;;;11.65;3.15;;;;;;;18.65;100.00;96836.94;4949587;28;20043;-57
2022/05/24 01:59:39;;;;;;;12.52;3.35;;;;;;;18.64;100.00;96839.75;4948605;28;20039;-56
2022/05/24 02:02:05;;;;;;;10.82;3.38;;;;;;;18.46;100.00;96837.81;4948318;28;20131;-57
2022/05/24 02:04:33;;;;;;;11.43;3.47;;;;;;;18.66;100.00;96843.91;4948525;28;20031;-56
2022/05/24 02:07:02;;;;;;;10.55;3.30;;;;;;;18.47;100.00;96846.56;4946425;28;20039;-57
2022/05/24 02:09:27;;;;;;;12.82;4.00;;;;;;;18.13;100.00;96854.91;4947915;28;20810;-56
2022/05/24 02:11:54;;;;;;;12.02;3.55;;;;;;;17.86;100.00;96855.56;4947315;28;20039;-57
2022/05/24 02:14:24;;;;;;;14.02;3.88;;;;;;;18.25;100.00;96851.19;4948143;28;20073;-57
2022/05/24 02:17:18;;;;;;;13.32;3.72;;;;;;;18.68;100.00;96846.41;4947974;28;20066;-56
2022/05/24 02:19:52;;;;;;;13.07;4.05;;;;;;;18.03;100.00;96857.56;4944281;28;20047;-55
2022/05/24 02:22:21;;;;;;;11.93;3.40;;;;;;;18.23;100.00;96858.41;4948713;28;20041;-56
2022/05/24 02:24:54;;;;;;;12.07;3.53;;;;;;;18.24;100.00;96865.31;4947620;28;20039;-58
2022/05/24 02:27:20;;;;;;;12.13;3.50;;;;;;;18.28;100.00;96869.34;4948199;28;20059;-57
2022/05/24 02:29:45;;;;;;;14.02;3.90;;;;;;;18.21;100.00;96875.31;4950435;28;20061;-57
2022/05/24 02:32:10;;;;;;;12.05;3.47;;;;;;;18.27;100.00;96870.34;4946770;28;20063;-56
2022/05/24 02:34:37;;;;;;;14.02;3.85;;;;;;;18.23;100.00;96874.22;4950197;28;20150;-57
2022/05/24 02:37:03;;;;;;;13.88;4.20;;;;;;;18.17;100.00;96880.03;4948507;28;20043;-58
2022/05/24 02:39:29;;;;;;;15.82;4.10;;;;;;;17.91;100.00;96896.38;4947890;28;20038;-57
2022/05/24 02:41:54;;;;;;;17.15;4.50;;;;;;;17.62;100.00;96906.00;4947014;28;20051;-56
2022/05/24 02:44:19;;;;;;;13.93;4.20;;;;;;;17.44;100.00;96903.16;4949028;28;20024;-57
2022/05/24 02:46:47;;;;;;;11.30;4.07;;;;;;;17.57;100.00;96909.06;4949093;28;20043;-56
2022/05/24 02:49:12;;;;;;;15.48;4.40;;;;;;;17.44;100.00;96922.47;4946766;28;20022;-56
2022/05/24 02:51:39;;;;;;;15.00;5.05;;;;;;;17.11;100.00;96916.47;4947007;28;20061;-56
2022/05/24 02:54:06;;;;;;;15.50;4.93;;;;;;;17.19;100.00;96915.81;4948283;28;20094;-58
2022/05/24 02:56:32;;;;;;;16.00;5.05;;;;;;;17.26;100.00;96910.84;4946005;28;20039;-56
2022/05/24 02:58:57;;;;;;;15.57;4.45;;;;;;;17.47;100.00;96913.44;4948623;28;20049;-56
2022/05/24 03:01:27;;;;;;;16.40;4.50;;;;;;;17.27;100.00;96912.53;4947264;28;20039;-58
2022/05/24 03:03:54;;;;;;;16.63;4.57;;;;;;;17.34;100.00;96903.13;4947475;28;20054;-57
2022/05/24 03:06:20;;;;;;;13.30;4.60;;;;;;;17.39;100.00;96898.28;4946104;28;20724;-57
2022/05/24 03:14:14;;;;;;;14.38;4.60;;;;;;;17.26;100.00;96900.28;4946809;28;20118;-55
2022/05/24 03:14:18;;;;;;;12.95;4.45;;;;;;;17.30;100.00;96901.72;4947439;28;20035;-57
2022/05/24 03:16:49;;;;;;;16.05;5.30;;;;;;;17.19;100.00;96907.09;4947364;28;20032;-56
2022/05/24 03:19:15;;;;;;;17.63;4.82;;;;;;;17.02;100.00;96909.34;4948485;28;20031;-55
2022/05/24 03:21:41;;;;;;;15.48;4.38;;;;;;;17.15;100.00;96909.97;4952452;28;20042;-56
2022/05/24 03:24:08;;;;;;;12.50;4.03;;;;;;;17.31;100.00;96904.22;4947300;28;21055;-55
2022/05/24 03:26:33;;;;;;;11.60;4.40;;;;;;;17.38;100.00;96901.88;4948865;28;20042;-56
2022/05/24 03:28:59;;;;;;;15.73;4.40;;;;;;;17.37;100.00;96908.13;4948867;28;20046;-56
2022/05/24 03:31:25;;;;;;;13.60;4.28;;;;;;;17.36;100.00;96906.44;4946085;28;20054;-57
2022/05/24 03:33:51;;;;;;;14.00;4.40;;;;;;;17.49;100.00;96888.59;4946503;28;20035;-55
2022/05/24 03:36:19;;;;;;;13.13;3.80;;;;;;;17.73;100.00;96888.25;4948601;28;20043;-56
2022/05/24 03:38:44;;;;;;;14.10;4.03;;;;;;;17.32;100.00;96894.50;4949433;28;20349;-55
2022/05/24 03:41:10;;;;;;;8.77;3.67;;;;;;;17.34;100.00;96893.41;4945893;28;20126;-56
2022/05/24 03:43:35;;;;;;;16.20;4.55;;;;;;;17.42;100.00;96889.28;4961513;28;20062;-59
2022/05/24 03:46:03;;;;;;;10.63;3.92;;;;;;;17.26;100.00;96895.03;4946670;28;20054;-56
2022/05/24 03:48:29;;;;;;;14.07;4.05;;;;;;;17.24;100.00;96892.53;4947473;28;20186;-56
2022/05/24 03:50:55;;;;;;;13.70;3.80;;;;;;;17.23;100.00;96892.66;4947792;28;20035;-55
2022/05/24 03:53:20;;;;;;;12.02;4.03;;;;;;;17.20;100.00;96895.56;4947917;28;20059;-55
2022/05/24 03:55:46;;;;;;;13.77;4.40;;;;;;;17.33;100.00;96896.16;4947224;28;20090;-55
2022/05/24 03:58:11;;;;;;;15.18;4.22;;;;;;;17.10;100.00;96891.06;4947415;28;20065;-56
2022/05/24 04:00:40;;;;;;;11.70;4.20;;;;;;;17.17;100.00;96890.53;4946139;28;20094;-55
2022/05/24 04:03:06;;;;;;;13.95;4.03;;;;;;;17.40;100.00;96885.94;4949754;28;20059;-56
2022/05/24 04:05:33;;;;;;;13.05;4.10;;;;;;;17.36;100.00;96895.91;4947283;28;20047;-58
2022/05/24 04:07:59;;;;;;;11.55;4.00;;;;;;;17.33;100.00;96906.72;4947648;28;20039;-57
2022/05/24 04:10:25;;;;;;;9.00;3.55;;;;;;;17.14;100.00;96904.81;4947735;28;20028;-56
2022/05/24 04:12:51;;;;;;;14.85;4.40;;;;;;;17.16;100.00;96897.63;4948135;28;20464;-57
2022/05/24 04:15:17;;;;;;;10.32;3.47;;;;;;;17.22;100.00;96889.22;4946714;28;20464;-56
2022/05/24 04:17:43;;;;;;;11.57;4.00;;;;;;;17.31;100.00;96898.09;4945375;28;20311;-56
2022/05/24 04:20:09;;;;;;;17.42;4.80;;;;;;;17.11;100.00;96892.75;4946663;28;20062;-57
2022/05/24 04:22:35;;;;;;;12.30;4.25;;;;;;;17.30;100.00;96891.19;4948283;28;20046;-56
2022/05/24 04:25:01;;;;;;;14.55;3.90;;;;;;;17.43;100.00;96904.97;4948410;28;20428;-56
2022/05/24 04:27:26;;;;;;;13.77;3.75;;;;;;;17.58;100.00;96896.69;4947487;28;20031;-57
2022/05/24 04:29:53;;;;;;;14.88;4.32;;;;;;;17.24;100.00;96907.50;4949459;28;20468;-57
2022/05/24 04:32:19;;;;;;;13.50;3.95;;;;;;;17.64;100.00;96901.44;4950428;28;20676;-58
2022/05/24 04:34:45;;;;;;;14.85;3.65;;;;;;;17.70;100.00;96904.38;4950071;28;20031;-56
2022/05/24 04:37:10;;;;;;;13.90;4.00;;;;;;;17.65;100.00;96911.84;4948436;28;20074;-58
2022/05/24 04:39:36;;;;;;;11.90;3.63;;;;;;;17.41;100.00;96916.63;4950730;28;20347;-59
2022/05/24 04:44:59;;;;;;;12.23;4.32;;;;;;;17.18;100.00;96931.75;4952401;28;20057;-58
2022/05/24 04:47:28;;;;;;;12.05;4.05;;;;;;;17.38;100.00;96930.88;4965252;28;20508;-58
2022/05/24 04:49:55;;;;;;;19.25;4.38;;;;;;;17.15;100.00;96936.31;4948493;28;20908;-59
2022/05/24 04:52:26;;;;;;;14.10;4.57;;;;;;;17.13;100.00;96934.78;4948857;28;20059;-57
2022/05/24 04:54:52;;;;;;;12.55;3.95;;;;;;;17.23;100.00;96933.03;4950429;28;20031;-58
2022/05/24 04:57:18;;;;;;;13.63;4.00;;;;;;;17.40;100.00;96950.03;4951664;28;20043;-57
2022/05/24 04:59:44;;;;;;;13.07;4.22;;;;;;;17.40;100.00;96950.03;4950973;28;20307;-56
2022/05/24 05:02:09;;;;;;;10.70;3.55;;;;;;;17.74;100.00;96947.13;4949784;28;20066;-57
2022/05/24 05:04:36;;;;;;;13.55;4.55;;;;;;;17.89;100.00;96945.81;4950047;28;20042;-58
2022/05/24 05:07:02;;;;;;;11.85;3.63;;;;;;;17.98;100.00;96961.81;4950057;28;20050;-57
2022/05/24 05:09:34;;;;;;;12.32;3.92;;;;;;;17.87;100.00;96958.31;4949551;28;20033;-57
2022/05/24 05:12:03;;;;;;;14.52;4.10;;;;;;;17.74;100.00;96970.88;4950288;28;20046;-57
2022/05/24 05:14:29;;;;;;;15.07;4.80;;;;;;;17.24;100.00;96970.75;4951142;28;20690;-57
2022/05/24 05:16:54;;;;;;;15.25;4.38;;;;;;;17.64;100.00;96967.34;4950451;28;20051;-57
2022/05/24 05:19:20;;;;;;;12.02;3.88;;;;;;;18.01;100.00;96953.63;4950734;28;20034;-59
2022/05/24 05:21:46;;;;;;;15.38;4.10;;;;;;;17.88;100.00;96959.13;4948522;28;20042;-57
2022/05/24 05:24:11;;;;;;;14.07;4.57;;;;;;;17.85;100.00;96948.88;4948664;28;20586;-58
2022/05/24 05:26:36;;;;;;;14.50;4.47;;;;;;;18.03;100.00;96957.81;4949704;28;20042;-59
2022/05/24 05:29:03;;;;;;;12.90;4.22;;;;;;;17.96;100.00;96950.53;4949633;28;20031;-59
2022/05/24 05:31:28;;;;;;;12.70;3.83;;;;;;;17.77;100.00;96954.75;4947823;28;20036;-58
2022/05/24 05:33:59;;;;;;;9.15;3.70;;;;;;;17.95;100.00;96948.88;4950604;28;20034;-57
2022/05/24 05:36:27;;;;;;;11.57;3.65;;;;;;;18.40;100.00;96932.59;4951574;28;20085;-58
2022/05/24 05:38:53;;;;;;;12.90;3.75;;;;;;;17.92;100.00;96956.09;4949401;28;20027;-57
2022/05/24 05:41:22;;;;;;;9.43;3.58;;;;;;;18.07;100.00;96948.66;4947997;28;20046;-57
2022/05/24 05:43:47;;;;;;;14.90;4.30;;;;;;;17.76;100.00;96949.66;4949645;28;20019;-57
2022/05/24 05:46:14;;;;;;;9.75;3.67;;;;;;;18.08;100.00;96949.47;4950307;28;20047;-59
2022/05/24 05:48:40;;;;;;;14.95;4.05;;;;;;;17.91;100.00;96943.88;4949850;28;20027;-57
2022/05/24 05:51:08;;;;;;;10.85;3.58;;;;;;;18.36;100.00;96931.19;4949607;28;20043;-58
2022/05/24 05:53:33;;;;;;;10.55;3.55;;;;;;;18.59;100.00;96942.31;4949120;28;20798;-57
2022/05/24 05:55:59;;;;;;;13.30;4.20;;;;;;;19.31;100.00;96942.81;4948256;28;20027;-57
2022/05/24 05:58:25;;;;;;;9.45;3.63;;;;;;;19.07;100.00;96934.38;4951296;28;20031;-55
2022/05/24 06:00:50;;;;;;;13.43;4.25;;;;;;;19.10;100.00;96940.34;4948765;28;20081;-56
2022/05/24 06:03:17;;;;;;;9.05;3.58;;;;;;;18.82;100.00;96942.88;4949652;28;20618;-56
2022/05/24 06:05:44;;;;;;;8.52;3.30;;;;;;;18.86;100.00;96950.41;4948192;28;20062;-56
2022/05/24 06:08:09;;;;;;;9.05;3.70;;;;;;;19.00;100.00;96948.28;4949803;28;20616;-56
2022/05/24 06:10:39;;;;;;;10.45;3.33;;;;;;;19.02;100.00;96943.69;4946420;28;20027;-55
2022/05/24 06:13:05;;;;;;;9.70;3.80;;;;;;;18.87;100.00;96956.50;4964842;28;20030;-58
2022/05/24 06:15:32;;;;;;;10.85;3.67;;;;;;;18.84;100.00;96959.44;4948901;28;20447;-57
2022/05/24 06:17:57;;;;;;;8.93;3.60;;;;;;;18.88;100.00;96968.75;4950548;28;21065;-57
2022/05/24 06:20:25;;;;;;;11.45;3.63;;;;;;;18.95;100.00;96985.72;4948989;28;20043;-58
2022/05/24 06:22:54;;;;;;;9.95;3.60;;;;;;;18.67;100.00;97013.75;4950213;28;20433;-58
2022/05/24 06:25:20;;;;;;;10.90;3.60;;;;;;;18.55;100.00;97010.41;4948324;28;20225;-57
2022/05/24 06:27:46;;;;;;;11.45;3.78;;;;;;;18.27;100.00;97020.78;4948029;28;20565;-57
2022/05/24 06:30:12;;;;;;;12.57;3.80;;;;;;;18.45;100.00;97025.41;4947285;28;20098;-58
2022/05/24 06:32:38;;;;;;;13.45;3.35;;;;;;;18.35;100.00;97019.28;4963802;28;20031;-57
2022/05/24 06:35:03;;;;;;;7.65;3.30;;;;;;;18.03;100.00;97021.13;4950922;28;20592;-59
2022/05/24 06:37:30;;;;;;;9.50;3.25;;;;;;;18.28;100.00;97014.53;4948429;28;20034;-59
2022/05/24 06:39:56;;;;;;;15.43;4.63;;;;;;;18.66;100.00;96997.09;4948566;28;20027;-56
2022/05/24 06:42:22;;;;;;;9.38;3.40;;;;;;;18.78;100.00;96989.00;4949289;28;20039;-56
2022/05/24 06:44:47;;;;;;;12.70;4.28;;;;;;;18.95;100.00;96996.28;4951119;28;20031;-57
2022/05/24 06:47:12;;;;;;;10.18;3.45;;;;;;;19.20;100.00;96994.03;4946957;28;20054;-56
2022/05/24 06:49:38;;;;;;;10.25;3.92;;;;;;;19.36;100.00;96983.69;4948324;28;20237;-57
2022/05/24 06:52:04;;;;;;;10.45;3.38;;;;;;;19.35;100.00;96989.97;4947418;28;20042;-58
2022/05/24 06:54:30;;;;;;;10.75;3.70;;;;;;;19.67;100.00;96993.22;4949608;28;20055;-57
2022/05/24 06:56:55;;;;;;;9.43;3.58;;;;;;;19.44;100.00;97004.97;4947753;28;20126;-56
2022/05/24 07:04:55;;;;;;;7.80;3.42;;;;;;;20.00;100.00;97005.13;4949445;28;20074;-56
2022/05/24 07:07:21;;;;;;;10.48;3.42;;;;;;;19.58;100.00;97008.16;4947500;28;20039;-56
2022/05/24 07:09:46;;;;;;;12.25;4.20;;;;;;;19.55;100.00;97003.13;4946893;28;20581;-57
2022/05/24 07:12:11;;;;;;;11.32;4.28;;;;;;;19.79;100.00;97006.16;4947048;28;20416;-56
2022/05/24 07:14:36;;;;;;;10.65;4.43;;;;;;;19.39;100.00;97016.94;4947473;28;20630;-58
2022/05/24 07:17:02;;;;;;;11.80;4.00;;;;;;;19.67;100.00;97015.22;4948403;28;20047;-57
2022/05/24 07:19:28;;;;;;;9.13;3.92;;;;;;;19.36;100.00;97026.00;4949133;28;20079;-57
2022/05/24 07:21:53;;;;;;;10.18;3.90;;;;;;;19.61;100.00;97042.22;4947542;28;20096;-57
2022/05/24 07:24:18;;;;;;;13.57;4.05;;;;;;;18.66;100.00;97060.47;4948720;28;20027;-57
2022/05/24 07:26:44;;;;;;;10.57;3.67;;;;;;;18.86;100.00;97064.00;4948630;28;20105;-57
2022/05/24 07:29:09;;;;;;;9.88;3.75;;;;;;;18.21;100.00;97060.88;4947997;28;20039;-57
2022/05/24 07:31:37;;;;;;;11.80;3.70;;;;;;;17.82;100.00;97059.88;4947272;28;20123;-56
2022/05/24 07:34:02;;;;;;;13.82;4.57;;;;;;;18.06;100.00;97062.22;4949149;28;20021;-58
2022/05/24 07:36:28;;;;;;;11.27;4.03;;;;;;;18.02;100.00;97052.91;4947437;28;20043;-57
2022/05/24 07:38:53;;;;;;;10.88;3.88;;;;;;;18.57;100.00;97045.44;4947455;28;20031;-57
2022/05/24 07:46:46;;;;;;;10.98;3.42;;;;;;;18.46;100.00;97069.31;4948470;28;20041;-58
2022/05/24 07:49:12;;;;;;;9.95;3.78;;;;;;;18.07;100.00;97070.03;4949229;28;20038;-57
2022/05/24 07:51:37;;;;;;;11.48;4.15;;;;;;;17.95;100.00;97068.44;4947637;28;20042;-57
2022/05/24 07:54:03;;;;;;;11.27;4.10;;;;;;;17.91;100.00;97059.94;4948619;28;20023;-57
2022/05/24 07:56:28;;;;;;;11.57;4.28;;;;;;;18.29;100.00;97057.59;4948211;28;20536;-57
2022/05/24 07:58:54;;;;;;;10.68;3.95;;;;;;;18.01;100.00;97049.44;4947314;28;20473;-57
2022/05/24 08:01:19;;;;;;;10.00;4.00;;;;;;;18.46;100.00;97056.13;4945826;28;20576;-57
2022/05/24 08:03:44;;;;;;;13.80;4.38;;;;;;;18.16;100.00;97059.63;4949259;28;20043;-57
2022/05/24 08:06:10;;;;;;;15.85;4.85;;;;;;;18.59;100.00;97059.34;4952970;28;20681;-57
2022/05/24 08:08:36;;;;;;;13.57;4.47;;;;;;;18.90;100.00;97056.63;4951994;28;20031;-58
2022/05/24 08:11:01;;;;;;;11.98;4.00;;;;;;;18.55;100.00;97057.13;4949641;28;20302;-58
2022/05/24 08:13:27;;;;;;;11.52;4.35;;;;;;;18.83;100.00;97066.09;4951845;28;20356;-56
2022/05/24 08:15:54;;;;;;;12.18;4.03;;;;;;;18.33;100.00;97063.47;4950624;28;20046;-57
2022/05/24 08:18:21;;;;;;;12.25;3.85;;;;;;;18.74;100.00;97056.31;4952558;28;20158;-56
2022/05/24 08:20:47;;;;;;;11.38;4.13;;;;;;;18.87;100.00;97054.25;4950786;28;20043;-56
2022/05/24 08:23:13;;;;;;;10.95;4.15;;;;;;;18.92;100.00;97046.75;4951198;28;20015;-57
2022/05/24 08:25:39;;;;;;;9.60;4.43;;;;;;;19.61;100.00;97035.16;4949596;28;20066;-58
2022/05/24 08:28:07;;;;;;;11.35;4.40;;;;;;;19.32;100.00;97040.50;4952183;28;20130;-56
2022/05/24 08:30:35;;;;;;;10.88;4.40;;;;;;;18.68;100.00;97045.31;4949267;28;20468;-57
2022/05/24 08:33:04;;;;;;;10.07;4.13;;;;;;;19.51;100.00;97044.09;4952082;28;20050;-60
2022/05/24 08:35:31;;;;;;;10.02;4.20;;;;;;;20.07;100.00;97043.25;4951091;28;20099;-59
2022/05/24 08:37:57;;;;;;;9.55;3.95;;;;;;;20.94;100.00;97044.56;4953001;28;20027;-58
2022/05/24 08:40:22;;;;;;;9.75;3.67;;;;;;;21.07;100.00;97038.06;4949783;28;20027;-58
2022/05/24 08:43:07;;;;;;;8.45;3.63;;;;;;;20.55;100.00;97036.84;4950640;28;20612;-56
2022/05/24 08:48:46;;;;;;;9.30;3.70;;;;;;;20.53;100.00;97041.47;4950298;28;20046;-56
2022/05/24 08:51:27;;;;;;;9.77;3.60;;;;;;;22.01;100.00;97032.09;4949186;28;20074;-57
2022/05/24 08:53:57;;;;;;;7.55;3.45;;;;;;;21.70;100.00;97019.31;4958141;28;20118;-57
2022/05/24 08:56:31;;;;;;;8.50;3.47;;;;;;;22.25;100.00;97006.63;4950891;28;20035;-58
2022/05/24 08:59:06;;;;;;;7.35;3.40;;;;;;;21.88;100.00;97011.28;4951234;28;20042;-56
2022/05/24 09:01:35;;;;;;;8.35;3.15;;;;;;;21.84;100.00;97014.44;4950669;28;20049;-57
2022/05/24 09:04:04;;;;;;;6.85;2.90;;;;;;;21.83;100.00;97018.88;4951527;28;20031;-58
2022/05/24 09:06:36;;;;;;;7.32;3.30;;;;;;;20.62;100.00;97028.34;4951284;28;20048;-57
2022/05/24 09:09:24;;;;;;;8.02;3.33;;;;;;;21.04;100.00;97039.19;4950792;28;20685;-58
2022/05/24 09:12:16;;;;;;;8.60;3.30;;;;;;;21.12;100.00;97057.00;4947964;28;20375;-57
2022/05/24 09:14:44;;;;;;;8.82;2.95;;;;;;;20.45;100.00;97056.44;4948357;28;20035;-57
2022/05/24 09:17:42;;;;;;;8.20;3.20;;;;;;;20.04;100.00;97067.34;4949078;28;20046;-58
2022/05/24 09:20:39;;;;;;;8.82;3.53;;;;;;;19.76;100.00;97075.25;4950084;28;20568;-59
2022/05/24 09:23:28;;;;;;;8.07;3.05;;;;;;;19.85;100.00;97084.13;4951922;28;20575;-58
2022/05/24 09:26:20;;;;;;;7.18;3.08;;;;;;;19.55;100.00;97091.25;4948493;28;20089;-58
2022/05/24 09:28:57;;;;;;;;;;;;;;;19.73;100.00;97086.09;4951885;28;20033;-58
2022/05/24 09:31:35;;;;;;;9.50;3.22;;;;;;;19.59;100.00;97089.16;4949104;28;19925;-57
2022/05/24 09:34:04;;;;;;;8.07;3.20;;;;;;;19.39;100.00;97094.47;4949828;28;20022;-58
2022/05/24 09:36:34;;;;;;;9.98;3.90;;;;;;;18.95;100.00;97109.91;4948023;28;20109;-57
2022/05/24 09:39:02;;;;;;;8.48;3.40;;;;;;;19.25;100.00;97135.38;4950629;28;20030;-59
2022/05/24 09:41:29;;;;;;;11.93;3.65;;;;;;;19.00;100.00;97199.31;4950036;28;20042;-58
2022/05/24 09:44:02;;;;;;;14.60;3.47;;;;;;;17.52;100.00;97191.53;4951116;28;20031;-56
2022/05/24 09:46:29;;;;;;;12.70;3.38;;;;;;;16.76;100.00;97196.72;4948885;28;20039;-57
2022/05/24 09:48:59;;;;;;;11.38;3.00;;;;;;;16.38;100.00;97213.69;4948975;28;20023;-58
2022/05/24 09:51:40;;;;;;;11.25;2.63;;;;;;;15.90;100.00;97205.97;4947911;28;20039;-57
2022/05/24 09:54:13;;;;;;;10.60;3.00;;;;;;;16.20;100.00;97223.00;4949126;28;20102;-57
2022/05/24 09:56:40;;;;;;;10.50;2.80;;;;;;;15.92;100.00;97230.38;4949974;28;20034;-57
2022/05/24 09:59:18;;;;;;;9.75;2.47;;;;;;;16.06;100.00;97236.38;4948799;28;20032;-57
2022/05/24 10:01:46;;;;;;;12.88;2.92;;;;;;;16.24;100.00;97245.50;4947068;28;20050;-58
2022/05/24 10:04:25;;;;;;;15.48;2.58;;;;;;;16.48;100.00;97247.22;4949188;28;20805;-57
2022/05/24 10:07:00;;;;;;;10.32;2.83;;;;;;;16.06;100.00;97231.94;4950023;28;20046;-57
2022/05/24 10:09:45;;;;;;;11.93;3.10;;;;;;;16.91;100.00;97233.38;4948421;28;20023;-56
2022/05/24 10:12:28;;;;;;;11.18;2.80;;;;;;;17.48;100.00;97227.03;4948000;28;20043;-57
2022/05/24 10:15:09;;;;;;;8.88;2.40;;;;;;;17.29;100.00;97232.09;4951027;28;20097;-57
2022/05/24 10:17:59;;;;;;;13.73;3.00;;;;;;;17.69;100.00;97218.31;4947657;28;20073;-58
2022/05/24 10:20:36;;;;;;;10.07;2.58;;;;;;;17.61;100.00;97231.28;4950218;28;20082;-57
2022/05/24 10:23:08;;;;;;;7.88;2.38;;;;;;;18.44;100.00;97229.69;4950689;28;20493;-57
2022/05/24 10:25:53;;;;;;;7.85;2.15;;;;;;;18.21;100.00;97219.25;4946966;28;20651;-57
2022/05/24 10:29:00;;;;;;;8.68;2.25;;;;;;;18.16;100.00;97221.47;4950522;28;20054;-58
2022/05/24 10:31:40;;;;;;;7.65;2.30;;;;;;;17.68;100.00;97228.03;4949824;28;20077;-57
2022/05/24 10:40:29;;;;;;;9.18;2.50;;;;;;;19.17;100.00;97211.91;4931550;28;20042;-57
2022/05/24 10:43:26;;;;;;;8.05;2.33;;;;;;;18.94;100.00;97216.56;4948383;28;20031;-56
2022/05/24 10:46:01;;;;;;;10.88;2.42;;;;;;;18.94;100.00;97221.84;4948862;28;20054;-57
2022/05/24 10:48:41;;;;;;;6.63;2.20;;;;;;;18.53;100.00;97214.81;4948809;28;20035;-57
2022/05/24 10:51:15;;;;;;;7.30;2.13;;;;;;;19.68;100.00;97207.34;4950191;28;20055;-57
2022/05/24 10:53:53;;;;;;;8.93;2.22;;;;;;;18.79;100.00;97209.94;4947477;28;20444;-57
2022/05/24 10:56:31;;;;;;;10.13;2.20;;;;;;;18.26;100.00;97214.41;4949834;28;20062;-57
2022/05/24 10:59:05;;;;;;;13.80;2.72;;;;;;;18.82;100.00;97215.84;4948215;28;20100;-57
2022/05/24 11:01:34;;;;;;;7.07;2.20;;;;;;;19.29;100.00;97204.69;4947413;28;20583;-57
2022/05/24 11:04:16;;;;;;;9.93;2.78;;;;;;;21.17;100.00;97203.19;4947631;28;20118;-57
2022/05/24 11:06:52;;;;;;;8.00;1.90;;;;;;;20.27;100.00;97209.94;4961434;28;20047;-57
2022/05/24 11:09:22;;;;;;;10.35;2.28;;;;;;;20.83;100.00;97219.69;4948479;28;20027;-58
2022/05/24 11:11:57;;;;;;;6.03;2.05;;;;;;;21.06;100.00;97216.66;4947806;28;20046;-58
2022/05/24 11:14:41;;;;;;;7.45;2.10;;;;;;;21.80;100.00;97214.78;4949830;28;20023;-57
2022/05/24 11:17:10;;;;;;;6.38;2.00;;;;;;;21.20;100.00;97218.81;4947866;28;20039;-58
2022/05/24 11:19:39;;;;;;;7.00;2.10;;;;;;;21.59;100.00;97223.06;4945983;28;20039;-59
2022/05/24 11:22:35;;;;;;;5.55;1.90;;;;;;;21.65;100.00;97223.28;4948285;28;20053;-57
2022/05/24 11:25:25;;;;;;;4.55;1.63;;;;;;;23.04;100.00;97230.56;4948464;28;20042;-58
2022/05/24 11:28:04;;;;;;;5.57;2.08;;;;;;;20.96;100.00;97217.53;4946992;28;20516;-58
2022/05/24 11:30:29;;;;;;;7.97;2.30;;;;;;;20.72;100.00;97219.91;4947811;28;20039;-56
2022/05/24 11:33:07;;;;;;;6.23;2.20;;;;;;;20.58;100.00;97224.63;4950189;28;20027;-57
2022/05/24 11:35:40;;;;;;;6.22;2.13;;;;;;;20.17;100.00;97224.06;4948553;28;20618;-57
2022/05/24 11:38:16;;;;;;;5.47;2.08;;;;;;;19.75;100.00;97228.81;4946622;28;20050;-58
2022/05/24 11:40:54;;;;;;;7.25;2.17;;;;;;;19.98;100.00;97226.75;4948683;28;20034;-58
2022/05/24 11:43:34;;;;;;;7.20;1.88;;;;;;;20.66;100.00;97221.31;4948850;28;20019;-56
2022/05/24 11:46:38;;;;;;;6.47;2.15;;;;;;;20.88;100.00;97222.75;4947143;28;20043;-57
2022/05/24 11:49:12;;;;;;;7.53;2.50;;;;;;;20.97;100.00;97221.88;4947866;28;20039;-57
2022/05/24 11:51:45;;;;;;;6.78;2.30;;;;;;;21.16;100.00;97223.56;4945636;28;20568;-57
2022/05/24 11:54:17;;;;;;;7.30;2.50;;;;;;;20.71;100.00;97221.69;4947774;28;20023;-57
2022/05/24 11:57:00;;;;;;;6.57;2.40;;;;;;;21.15;100.00;97219.25;4948986;28;20427;-56
2022/05/24 11:59:43;;;;;;;9.95;2.30;;;;;;;21.57;100.00;97220.53;4946111;28;20572;-57
2022/05/24 12:02:20;;;;;;;4.85;1.80;;;;;;;21.60;100.00;97224.75;4945872;28;20055;-57